sensor_id;sensor_type;location;lat;lon;timestamp;temperature;humidity
54518;DHT22;40423;53.176;6.002;2023-03-05T00:01:23;4.10;99.90
54518;DHT22;40423;53.176;6.002;2023-03-05T00:03:51;4.20;99.90
54518;DHT22;40423;53.176;6.002;2023-03-05T00:06:18;4.20;99.90
54518;DHT22;40423;53.176;6.002;2023-03-05T00:08:44;4.10;99.90
54518;DHT22;40423;53.176;6.002;2023-03-05T00:11:11;4.20;99.90
54518;DHT22;40423;53.176;6.002;2023-03-05T00:13:37;4.20;99.90
54518;DHT22;40423;53.176;6.002;2023-03-05T00:16:05;4.20;99.90
54518;DHT22;40423;53.176;6.002;2023-03-05T00:18:32;4.20;99.90
54518;DHT22;40423;53.176;6.002;2023-03-05T00:20:58;4.20;99.90
54518;DHT22;40423;53.176;6.002;2023-03-05T00:23:23;4.20;99.90
54518;DHT22;40423;53.176;6.002;2023-03-05T00:25:49;4.10;99.90
54518;DHT22;40423;53.176;6.002;2023-03-05T00:28:15;4.10;99.90
54518;DHT22;40423;53.176;6.002;2023-03-05T00:30:41;4.10;99.90
54518;DHT22;40423;53.176;6.002;2023-03-05T00:33:07;4.20;99.90
54518;DHT22;40423;53.176;6.002;2023-03-05T00:35:40;4.10;99.90
54518;DHT22;40423;53.176;6.002;2023-03-05T00:38:06;4.10;99.90
54518;DHT22;40423;53.176;6.002;2023-03-05T00:40:35;4.00;99.90
54518;DHT22;40423;53.176;6.002;2023-03-05T00:43:01;4.10;99.90
54518;DHT22;40423;53.176;6.002;2023-03-05T00:45:27;4.10;99.90
54518;DHT22;40423;53.176;6.002;2023-03-05T00:47:52;4.00;99.90
54518;DHT22;40423;53.176;6.002;2023-03-05T00:50:18;4.00;99.90
54518;DHT22;40423;53.176;6.002;2023-03-05T00:52:44;3.90;99.90
54518;DHT22;40423;53.176;6.002;2023-03-05T00:55:10;3.90;99.90
54518;DHT22;40423;53.176;6.002;2023-03-05T00:57:35;3.90;99.90
54518;DHT22;40423;53.176;6.002;2023-03-05T01:00:01;3.80;99.90
54518;DHT22;40423;53.176;6.002;2023-03-05T01:02:28;3.70;99.90
54518;DHT22;40423;53.176;6.002;2023-03-05T01:04:54;3.70;99.90
54518;DHT22;40423;53.176;6.002;2023-03-05T01:07:19;3.70;99.90
54518;DHT22;40423;53.176;6.002;2023-03-05T01:09:45;3.60;99.90
54518;DHT22;40423;53.176;6.002;2023-03-05T01:12:11;3.60;99.90
54518;DHT22;40423;53.176;6.002;2023-03-05T01:14:37;3.50;99.90
54518;DHT22;40423;53.176;6.002;2023-03-05T01:17:02;3.50;99.90
54518;DHT22;40423;53.176;6.002;2023-03-05T01:19:28;3.50;99.90
54518;DHT22;40423;53.176;6.002;2023-03-05T01:21:54;3.50;99.90
54518;DHT22;40423;53.176;6.002;2023-03-05T01:24:20;3.50;99.90
54518;DHT22;40423;53.176;6.002;2023-03-05T01:26:46;3.50;99.90
54518;DHT22;40423;53.176;6.002;2023-03-05T01:29:14;3.50;99.90
54518;DHT22;40423;53.176;6.002;2023-03-05T01:31:39;3.50;99.90
54518;DHT22;40423;53.176;6.002;2023-03-05T01:34:05;3.50;99.90
54518;DHT22;40423;53.176;6.002;2023-03-05T01:36:31;3.50;99.90
54518;DHT22;40423;53.176;6.002;2023-03-05T01:38:57;3.50;99.90
54518;DHT22;40423;53.176;6.002;2023-03-05T01:41:23;3.50;99.90
54518;DHT22;40423;53.176;6.002;2023-03-05T01:43:50;3.50;99.90
54518;DHT22;40423;53.176;6.002;2023-03-05T01:46:36;3.50;99.90
54518;DHT22;40423;53.176;6.002;2023-03-05T01:54:12;3.40;99.90
54518;DHT22;40423;53.176;6.002;2023-03-05T01:56:40;3.50;99.90
54518;DHT22;40423;53.176;6.002;2023-03-05T01:59:06;3.50;99.90
54518;DHT22;40423;53.176;6.002;2023-03-05T02:01:37;3.50;99.90
54518;DHT22;40423;53.176;6.002;2023-03-05T02:04:04;3.50;99.90
54518;DHT22;40423;53.176;6.002;2023-03-05T02:06:29;3.50;99.90
54518;DHT22;40423;53.176;6.002;2023-03-05T02:08:55;3.50;99.90
54518;DHT22;40423;53.176;6.002;2023-03-05T02:11:21;3.60;99.90
54518;DHT22;40423;53.176;6.002;2023-03-05T02:13:47;3.60;99.90
54518;DHT22;40423;53.176;6.002;2023-03-05T02:16:13;3.60;99.90
54518;DHT22;40423;53.176;6.002;2023-03-05T02:18:38;3.70;99.90
54518;DHT22;40423;53.176;6.002;2023-03-05T02:21:06;3.70;99.90
54518;DHT22;40423;53.176;6.002;2023-03-05T02:23:34;3.70;99.90
54518;DHT22;40423;53.176;6.002;2023-03-05T02:26:04;3.80;99.90
54518;DHT22;40423;53.176;6.002;2023-03-05T02:28:52;3.70;99.90
54518;DHT22;40423;53.176;6.002;2023-03-05T02:31:22;3.70;99.90
54518;DHT22;40423;53.176;6.002;2023-03-05T02:33:49;3.70;99.90
54518;DHT22;40423;53.176;6.002;2023-03-05T02:36:15;3.70;99.90
54518;DHT22;40423;53.176;6.002;2023-03-05T02:38:42;3.70;99.90
54518;DHT22;40423;53.176;6.002;2023-03-05T02:41:08;3.70;99.90
54518;DHT22;40423;53.176;6.002;2023-03-05T02:43:34;3.70;99.90
54518;DHT22;40423;53.176;6.002;2023-03-05T02:46:00;3.70;99.90
54518;DHT22;40423;53.176;6.002;2023-03-05T02:48:26;3.70;99.90
54518;DHT22;40423;53.176;6.002;2023-03-05T02:50:52;3.70;99.90
54518;DHT22;40423;53.176;6.002;2023-03-05T02:53:18;3.70;99.90
54518;DHT22;40423;53.176;6.002;2023-03-05T02:55:47;3.70;99.90
54518;DHT22;40423;53.176;6.002;2023-03-05T02:58:13;3.70;99.90
54518;DHT22;40423;53.176;6.002;2023-03-05T03:00:39;3.80;99.90
54518;DHT22;40423;53.176;6.002;2023-03-05T03:03:05;3.80;99.90
54518;DHT22;40423;53.176;6.002;2023-03-05T03:05:31;3.80;99.90
54518;DHT22;40423;53.176;6.002;2023-03-05T03:07:57;3.80;99.90
54518;DHT22;40423;53.176;6.002;2023-03-05T03:10:22;3.80;99.90
54518;DHT22;40423;53.176;6.002;2023-03-05T03:12:48;3.70;99.90
54518;DHT22;40423;53.176;6.002;2023-03-05T03:15:15;3.70;99.90
54518;DHT22;40423;53.176;6.002;2023-03-05T03:17:41;3.70;99.90
54518;DHT22;40423;53.176;6.002;2023-03-05T03:20:09;3.70;99.90
54518;DHT22;40423;53.176;6.002;2023-03-05T03:22:38;3.70;99.90
54518;DHT22;40423;53.176;6.002;2023-03-05T03:25:05;3.70;99.90
54518;DHT22;40423;53.176;6.002;2023-03-05T03:27:30;3.70;99.90
54518;DHT22;40423;53.176;6.002;2023-03-05T03:29:56;3.70;99.90
54518;DHT22;40423;53.176;6.002;2023-03-05T03:32:27;3.70;99.90
54518;DHT22;40423;53.176;6.002;2023-03-05T03:34:53;3.60;99.90
54518;DHT22;40423;53.176;6.002;2023-03-05T03:37:19;3.60;99.90
54518;DHT22;40423;53.176;6.002;2023-03-05T03:39:44;3.60;99.90
54518;DHT22;40423;53.176;6.002;2023-03-05T03:42:10;3.70;99.90
54518;DHT22;40423;53.176;6.002;2023-03-05T03:44:36;3.60;99.90
54518;DHT22;40423;53.176;6.002;2023-03-05T03:47:02;3.60;99.90
54518;DHT22;40423;53.176;6.002;2023-03-05T03:49:27;3.60;99.90
54518;DHT22;40423;53.176;6.002;2023-03-05T03:51:53;3.60;99.90
54518;DHT22;40423;53.176;6.002;2023-03-05T03:54:20;3.60;99.90
54518;DHT22;40423;53.176;6.002;2023-03-05T03:56:46;3.60;99.90
54518;DHT22;40423;53.176;6.002;2023-03-05T03:59:13;3.60;99.90
54518;DHT22;40423;53.176;6.002;2023-03-05T04:01:39;3.60;99.90
54518;DHT22;40423;53.176;6.002;2023-03-05T04:04:05;3.60;99.90
54518;DHT22;40423;53.176;6.002;2023-03-05T04:06:31;3.60;99.90
54518;DHT22;40423;53.176;6.002;2023-03-05T04:08:58;3.60;99.90
54518;DHT22;40423;53.176;6.002;2023-03-05T04:11:24;3.50;99.90
54518;DHT22;40423;53.176;6.002;2023-03-05T04:13:50;3.60;99.90
54518;DHT22;40423;53.176;6.002;2023-03-05T04:16:16;3.60;99.90
54518;DHT22;40423;53.176;6.002;2023-03-05T04:18:43;3.60;99.90
54518;DHT22;40423;53.176;6.002;2023-03-05T04:21:09;3.60;99.90
54518;DHT22;40423;53.176;6.002;2023-03-05T04:23:35;3.60;99.90
54518;DHT22;40423;53.176;6.002;2023-03-05T04:26:01;3.60;99.90
54518;DHT22;40423;53.176;6.002;2023-03-05T04:28:27;3.60;99.90
54518;DHT22;40423;53.176;6.002;2023-03-05T04:30:53;3.60;99.90
54518;DHT22;40423;53.176;6.002;2023-03-05T04:33:19;3.70;99.90
54518;DHT22;40423;53.176;6.002;2023-03-05T04:35:44;3.70;99.90
54518;DHT22;40423;53.176;6.002;2023-03-05T04:38:10;3.60;99.90
54518;DHT22;40423;53.176;6.002;2023-03-05T04:40:36;3.60;99.90
54518;DHT22;40423;53.176;6.002;2023-03-05T04:43:03;3.60;99.90
54518;DHT22;40423;53.176;6.002;2023-03-05T04:45:29;3.60;99.90
54518;DHT22;40423;53.176;6.002;2023-03-05T04:47:56;3.60;99.90
54518;DHT22;40423;53.176;6.002;2023-03-05T04:50:21;3.70;99.90
54518;DHT22;40423;53.176;6.002;2023-03-05T04:52:47;3.60;99.90
54518;DHT22;40423;53.176;6.002;2023-03-05T04:55:14;3.70;99.90
54518;DHT22;40423;53.176;6.002;2023-03-05T04:57:40;3.70;99.90
54518;DHT22;40423;53.176;6.002;2023-03-05T05:00:09;3.60;99.90
54518;DHT22;40423;53.176;6.002;2023-03-05T05:02:40;3.60;99.90
54518;DHT22;40423;53.176;6.002;2023-03-05T05:05:07;3.60;99.90
54518;DHT22;40423;53.176;6.002;2023-03-05T05:07:33;3.60;99.90
54518;DHT22;40423;53.176;6.002;2023-03-05T05:09:59;3.70;99.90
54518;DHT22;40423;53.176;6.002;2023-03-05T05:12:27;3.60;99.90
54518;DHT22;40423;53.176;6.002;2023-03-05T05:14:54;3.60;99.90
54518;DHT22;40423;53.176;6.002;2023-03-05T05:17:20;3.60;99.90
54518;DHT22;40423;53.176;6.002;2023-03-05T05:19:45;3.60;99.90
54518;DHT22;40423;53.176;6.002;2023-03-05T05:22:11;3.60;99.90
54518;DHT22;40423;53.176;6.002;2023-03-05T05:24:37;3.60;99.90
54518;DHT22;40423;53.176;6.002;2023-03-05T05:27:03;3.60;99.90
54518;DHT22;40423;53.176;6.002;2023-03-05T05:29:28;3.60;99.90
54518;DHT22;40423;53.176;6.002;2023-03-05T05:31:54;3.60;99.90
54518;DHT22;40423;53.176;6.002;2023-03-05T05:34:20;3.60;99.90
54518;DHT22;40423;53.176;6.002;2023-03-05T05:36:46;3.60;99.90
54518;DHT22;40423;53.176;6.002;2023-03-05T05:39:12;3.50;99.90
54518;DHT22;40423;53.176;6.002;2023-03-05T05:41:38;3.50;99.90
54518;DHT22;40423;53.176;6.002;2023-03-05T05:44:03;3.50;99.90
54518;DHT22;40423;53.176;6.002;2023-03-05T05:46:29;3.50;99.90
54518;DHT22;40423;53.176;6.002;2023-03-05T05:48:55;3.50;99.90
54518;DHT22;40423;53.176;6.002;2023-03-05T05:51:23;3.50;99.90
54518;DHT22;40423;53.176;6.002;2023-03-05T05:53:49;3.50;99.90
54518;DHT22;40423;53.176;6.002;2023-03-05T05:56:16;3.40;99.90
54518;DHT22;40423;53.176;6.002;2023-03-05T05:58:43;3.40;99.90
54518;DHT22;40423;53.176;6.002;2023-03-05T06:01:27;3.60;99.90
54518;DHT22;40423;53.176;6.002;2023-03-05T06:03:53;3.40;99.90
54518;DHT22;40423;53.176;6.002;2023-03-05T06:06:20;3.30;99.90
54518;DHT22;40423;53.176;6.002;2023-03-05T06:08:47;3.30;99.90
54518;DHT22;40423;53.176;6.002;2023-03-05T06:11:13;3.30;99.90
54518;DHT22;40423;53.176;6.002;2023-03-05T06:13:39;3.30;99.90
54518;DHT22;40423;53.176;6.002;2023-03-05T06:16:10;3.30;99.90
54518;DHT22;40423;53.176;6.002;2023-03-05T06:18:36;3.30;99.90
54518;DHT22;40423;53.176;6.002;2023-03-05T06:21:07;3.30;99.90
54518;DHT22;40423;53.176;6.002;2023-03-05T06:23:33;3.30;99.90
54518;DHT22;40423;53.176;6.002;2023-03-05T06:26:02;3.20;99.90
54518;DHT22;40423;53.176;6.002;2023-03-05T06:28:28;3.30;99.90
54518;DHT22;40423;53.176;6.002;2023-03-05T06:31:05;3.20;99.90
54518;DHT22;40423;53.176;6.002;2023-03-05T06:33:32;3.20;99.90
54518;DHT22;40423;53.176;6.002;2023-03-05T06:35:58;3.20;99.90
54518;DHT22;40423;53.176;6.002;2023-03-05T06:38:24;3.20;99.90
54518;DHT22;40423;53.176;6.002;2023-03-05T06:40:50;3.20;99.90
54518;DHT22;40423;53.176;6.002;2023-03-05T06:43:16;3.20;99.90
54518;DHT22;40423;53.176;6.002;2023-03-05T06:45:42;3.20;99.90
54518;DHT22;40423;53.176;6.002;2023-03-05T06:48:08;3.20;99.90
54518;DHT22;40423;53.176;6.002;2023-03-05T06:50:34;3.10;99.90
54518;DHT22;40423;53.176;6.002;2023-03-05T06:53:00;3.10;99.90
54518;DHT22;40423;53.176;6.002;2023-03-05T06:55:26;3.10;99.90
54518;DHT22;40423;53.176;6.002;2023-03-05T06:57:52;3.10;99.90
54518;DHT22;40423;53.176;6.002;2023-03-05T07:00:18;3.00;99.90
54518;DHT22;40423;53.176;6.002;2023-03-05T07:02:44;3.10;99.90
54518;DHT22;40423;53.176;6.002;2023-03-05T07:05:09;3.10;99.90
54518;DHT22;40423;53.176;6.002;2023-03-05T07:07:35;3.10;99.90
54518;DHT22;40423;53.176;6.002;2023-03-05T07:10:01;3.10;99.90
54518;DHT22;40423;53.176;6.002;2023-03-05T07:12:27;3.10;99.90
54518;DHT22;40423;53.176;6.002;2023-03-05T07:14:53;3.10;99.90
54518;DHT22;40423;53.176;6.002;2023-03-05T07:17:20;3.30;99.90
54518;DHT22;40423;53.176;6.002;2023-03-05T07:19:45;3.00;99.90
54518;DHT22;40423;53.176;6.002;2023-03-05T07:22:11;3.60;99.90
54518;DHT22;40423;53.176;6.002;2023-03-05T07:24:37;3.10;99.90
54518;DHT22;40423;53.176;6.002;2023-03-05T07:27:03;3.10;99.90
54518;DHT22;40423;53.176;6.002;2023-03-05T07:29:28;3.10;99.90
54518;DHT22;40423;53.176;6.002;2023-03-05T07:31:54;3.60;99.90
54518;DHT22;40423;53.176;6.002;2023-03-05T07:34:20;3.30;99.90
54518;DHT22;40423;53.176;6.002;2023-03-05T07:36:50;3.20;99.90
54518;DHT22;40423;53.176;6.002;2023-03-05T07:39:16;3.30;99.90
54518;DHT22;40423;53.176;6.002;2023-03-05T07:41:44;3.30;99.90
54518;DHT22;40423;53.176;6.002;2023-03-05T07:44:10;3.40;99.90
54518;DHT22;40423;53.176;6.002;2023-03-05T07:46:36;3.50;99.90
54518;DHT22;40423;53.176;6.002;2023-03-05T07:49:02;3.80;99.90
54518;DHT22;40423;53.176;6.002;2023-03-05T07:51:28;3.60;99.90
54518;DHT22;40423;53.176;6.002;2023-03-05T07:53:55;3.60;99.90
54518;DHT22;40423;53.176;6.002;2023-03-05T07:56:27;3.70;99.90
54518;DHT22;40423;53.176;6.002;2023-03-05T07:58:57;4.00;99.90
54518;DHT22;40423;53.176;6.002;2023-03-05T08:01:22;3.80;99.90
54518;DHT22;40423;53.176;6.002;2023-03-05T08:03:48;3.90;99.90
54518;DHT22;40423;53.176;6.002;2023-03-05T08:06:14;4.00;99.90
54518;DHT22;40423;53.176;6.002;2023-03-05T08:08:40;4.30;99.90
54518;DHT22;40423;53.176;6.002;2023-03-05T08:11:08;4.10;99.90
54518;DHT22;40423;53.176;6.002;2023-03-05T08:13:35;4.30;99.90
54518;DHT22;40423;53.176;6.002;2023-03-05T08:16:05;4.40;99.90
54518;DHT22;40423;53.176;6.002;2023-03-05T08:18:31;4.40;99.90
54518;DHT22;40423;53.176;6.002;2023-03-05T08:20:57;4.60;99.90
54518;DHT22;40423;53.176;6.002;2023-03-05T08:23:26;4.70;99.90
54518;DHT22;40423;53.176;6.002;2023-03-05T08:25:51;4.70;99.90
54518;DHT22;40423;53.176;6.002;2023-03-05T08:28:17;4.80;99.90
54518;DHT22;40423;53.176;6.002;2023-03-05T08:30:46;4.90;99.90
54518;DHT22;40423;53.176;6.002;2023-03-05T08:33:13;5.00;99.90
54518;DHT22;40423;53.176;6.002;2023-03-05T08:35:40;5.00;99.90
54518;DHT22;40423;53.176;6.002;2023-03-05T08:38:05;5.20;99.90
54518;DHT22;40423;53.176;6.002;2023-03-05T08:40:31;5.10;99.90
54518;DHT22;40423;53.176;6.002;2023-03-05T08:42:58;5.10;99.90
54518;DHT22;40423;53.176;6.002;2023-03-05T08:45:26;5.20;99.90
54518;DHT22;40423;53.176;6.002;2023-03-05T08:47:56;5.30;99.90
54518;DHT22;40423;53.176;6.002;2023-03-05T08:50:22;5.40;99.90
54518;DHT22;40423;53.176;6.002;2023-03-05T08:52:49;5.50;99.90
54518;DHT22;40423;53.176;6.002;2023-03-05T08:55:15;5.50;99.90
54518;DHT22;40423;53.176;6.002;2023-03-05T08:57:41;5.60;99.90
54518;DHT22;40423;53.176;6.002;2023-03-05T09:00:07;5.60;99.90
54518;DHT22;40423;53.176;6.002;2023-03-05T09:02:35;5.60;99.90
54518;DHT22;40423;53.176;6.002;2023-03-05T09:05:02;5.70;99.90
54518;DHT22;40423;53.176;6.002;2023-03-05T09:07:28;5.80;99.90
54518;DHT22;40423;53.176;6.002;2023-03-05T09:09:53;6.00;99.90
54518;DHT22;40423;53.176;6.002;2023-03-05T09:12:19;6.10;99.90
54518;DHT22;40423;53.176;6.002;2023-03-05T09:14:45;6.00;99.90
54518;DHT22;40423;53.176;6.002;2023-03-05T09:17:10;6.20;99.90
54518;DHT22;40423;53.176;6.002;2023-03-05T09:19:36;6.40;99.90
54518;DHT22;40423;53.176;6.002;2023-03-05T09:22:02;6.30;99.90
54518;DHT22;40423;53.176;6.002;2023-03-05T09:24:28;6.30;99.90
54518;DHT22;40423;53.176;6.002;2023-03-05T09:26:57;6.30;99.90
54518;DHT22;40423;53.176;6.002;2023-03-05T09:29:24;6.40;99.90
54518;DHT22;40423;53.176;6.002;2023-03-05T09:31:51;6.40;99.90
54518;DHT22;40423;53.176;6.002;2023-03-05T09:34:16;6.40;99.90
54518;DHT22;40423;53.176;6.002;2023-03-05T09:36:42;6.30;99.90
54518;DHT22;40423;53.176;6.002;2023-03-05T09:39:08;6.30;99.90
54518;DHT22;40423;53.176;6.002;2023-03-05T09:49:57;6.20;99.90
54518;DHT22;40423;53.176;6.002;2023-03-05T09:52:50;6.40;99.90
54518;DHT22;40423;53.176;6.002;2023-03-05T09:57:56;7.00;99.90
54518;DHT22;40423;53.176;6.002;2023-03-05T10:00:43;6.80;99.90
54518;DHT22;40423;53.176;6.002;2023-03-05T10:03:26;6.60;99.90
54518;DHT22;40423;53.176;6.002;2023-03-05T10:06:19;6.50;99.90
54518;DHT22;40423;53.176;6.002;2023-03-05T10:09:01;6.40;99.90
54518;DHT22;40423;53.176;6.002;2023-03-05T10:14:39;6.40;99.90
54518;DHT22;40423;53.176;6.002;2023-03-05T10:17:23;6.50;99.90
54518;DHT22;40423;53.176;6.002;2023-03-05T10:20:24;6.60;99.90
54518;DHT22;40423;53.176;6.002;2023-03-05T10:23:07;6.90;99.90
54518;DHT22;40423;53.176;6.002;2023-03-05T10:31:39;7.20;99.90
54518;DHT22;40423;53.176;6.002;2023-03-05T10:40:12;7.80;99.90
54518;DHT22;40423;53.176;6.002;2023-03-05T10:42:49;7.60;99.90
54518;DHT22;40423;53.176;6.002;2023-03-05T10:45:20;7.40;99.90
54518;DHT22;40423;53.176;6.002;2023-03-05T10:47:58;7.10;99.90
54518;DHT22;40423;53.176;6.002;2023-03-05T10:50:30;6.90;99.90
54518;DHT22;40423;53.176;6.002;2023-03-05T10:55:38;6.90;99.90
54518;DHT22;40423;53.176;6.002;2023-03-05T10:58:12;7.00;99.90
54518;DHT22;40423;53.176;6.002;2023-03-05T11:00:38;7.30;99.90
54518;DHT22;40423;53.176;6.002;2023-03-05T11:03:09;7.30;99.90
54518;DHT22;40423;53.176;6.002;2023-03-05T11:05:42;7.10;99.90
54518;DHT22;40423;53.176;6.002;2023-03-05T11:08:36;7.40;99.90
54518;DHT22;40423;53.176;6.002;2023-03-05T11:11:15;7.40;99.90
54518;DHT22;40423;53.176;6.002;2023-03-05T11:13:57;7.70;99.90
54518;DHT22;40423;53.176;6.002;2023-03-05T11:16:31;7.50;99.90
54518;DHT22;40423;53.176;6.002;2023-03-05T11:19:25;7.30;99.90
54518;DHT22;40423;53.176;6.002;2023-03-05T11:24:37;7.20;99.90
54518;DHT22;40423;53.176;6.002;2023-03-05T11:28:07;7.40;99.90
54518;DHT22;40423;53.176;6.002;2023-03-05T11:30:25;7.60;99.90
54518;DHT22;40423;53.176;6.002;2023-03-05T11:33:14;7.60;99.90
54518;DHT22;40423;53.176;6.002;2023-03-05T11:35:42;7.50;99.90
54518;DHT22;40423;53.176;6.002;2023-03-05T11:38:23;7.40;99.90
54518;DHT22;40423;53.176;6.002;2023-03-05T11:40:51;7.30;99.90
54518;DHT22;40423;53.176;6.002;2023-03-05T11:43:24;7.20;99.90
54518;DHT22;40423;53.176;6.002;2023-03-05T11:45:53;7.10;99.90
54518;DHT22;40423;53.176;6.002;2023-03-05T11:48:24;7.20;99.90
54518;DHT22;40423;53.176;6.002;2023-03-05T11:50:58;7.40;99.90
54518;DHT22;40423;53.176;6.002;2023-03-05T11:53:33;7.70;99.90
54518;DHT22;40423;53.176;6.002;2023-03-05T11:58:56;7.80;99.90
54518;DHT22;40423;53.176;6.002;2023-03-05T12:01:25;7.50;99.90
54518;DHT22;40423;53.176;6.002;2023-03-05T12:03:52;7.20;99.90
54518;DHT22;40423;53.176;6.002;2023-03-05T12:11:52;7.10;99.90
54518;DHT22;40423;53.176;6.002;2023-03-05T12:14:23;7.40;99.90
54518;DHT22;40423;53.176;6.002;2023-03-05T12:16:57;7.50;99.90
54518;DHT22;40423;53.176;6.002;2023-03-05T12:19:37;7.60;99.90
54518;DHT22;40423;53.176;6.002;2023-03-05T12:22:23;7.70;99.90
54518;DHT22;40423;53.176;6.002;2023-03-05T12:24:50;7.80;99.90
54518;DHT22;40423;53.176;6.002;2023-03-05T12:27:34;7.90;99.90
54518;DHT22;40423;53.176;6.002;2023-03-05T12:30:00;7.90;99.90
54518;DHT22;40423;53.176;6.002;2023-03-05T12:35:14;8.50;99.90
54518;DHT22;40423;53.176;6.002;2023-03-05T12:40:21;8.10;99.90
54518;DHT22;40423;53.176;6.002;2023-03-05T12:43:01;8.10;99.90
54518;DHT22;40423;53.176;6.002;2023-03-05T12:45:39;8.10;99.90
54518;DHT22;40423;53.176;6.002;2023-03-05T12:53:18;7.60;99.90
54518;DHT22;40423;53.176;6.002;2023-03-05T12:58:24;7.40;99.90
54518;DHT22;40423;53.176;6.002;2023-03-05T13:03:39;7.30;99.90
54518;DHT22;40423;53.176;6.002;2023-03-05T13:08:58;7.10;99.90
54518;DHT22;40423;53.176;6.002;2023-03-05T13:11:26;7.10;99.90
54518;DHT22;40423;53.176;6.002;2023-03-05T13:13:53;7.00;99.90
54518;DHT22;40423;53.176;6.002;2023-03-05T13:16:26;7.20;99.90
54518;DHT22;40423;53.176;6.002;2023-03-05T13:18:55;7.30;99.90
54518;DHT22;40423;53.176;6.002;2023-03-05T13:21:30;7.40;99.90
54518;DHT22;40423;53.176;6.002;2023-03-05T13:23:58;7.40;99.90
54518;DHT22;40423;53.176;6.002;2023-03-05T13:26:44;7.70;99.90
54518;DHT22;40423;53.176;6.002;2023-03-05T13:29:24;7.90;99.90
54518;DHT22;40423;53.176;6.002;2023-03-05T13:32:00;8.10;99.90
54518;DHT22;40423;53.176;6.002;2023-03-05T13:34:27;8.20;99.90
54518;DHT22;40423;53.176;6.002;2023-03-05T13:36:57;8.00;99.90
54518;DHT22;40423;53.176;6.002;2023-03-05T13:39:33;7.60;99.90
54518;DHT22;40423;53.176;6.002;2023-03-05T13:42:05;7.40;99.90
54518;DHT22;40423;53.176;6.002;2023-03-05T13:44:32;7.30;99.90
54518;DHT22;40423;53.176;6.002;2023-03-05T13:47:29;7.40;99.90
54518;DHT22;40423;53.176;6.002;2023-03-05T13:50:03;7.30;99.90
54518;DHT22;40423;53.176;6.002;2023-03-05T13:52:32;7.20;99.90
54518;DHT22;40423;53.176;6.002;2023-03-05T13:54:59;7.30;99.90
54518;DHT22;40423;53.176;6.002;2023-03-05T13:57:40;7.30;99.90
54518;DHT22;40423;53.176;6.002;2023-03-05T14:02:54;7.40;99.90
54518;DHT22;40423;53.176;6.002;2023-03-05T14:05:20;7.30;99.90
54518;DHT22;40423;53.176;6.002;2023-03-05T14:07:50;7.30;99.90
54518;DHT22;40423;53.176;6.002;2023-03-05T14:10:32;7.20;99.90
54518;DHT22;40423;53.176;6.002;2023-03-05T14:13:01;7.10;99.90
54518;DHT22;40423;53.176;6.002;2023-03-05T14:15:30;6.80;99.90
54518;DHT22;40423;53.176;6.002;2023-03-05T14:23:46;6.80;99.90
54518;DHT22;40423;53.176;6.002;2023-03-05T14:26:31;6.90;99.90
54518;DHT22;40423;53.176;6.002;2023-03-05T14:31:44;7.10;99.90
54518;DHT22;40423;53.176;6.002;2023-03-05T14:34:21;7.10;99.90
54518;DHT22;40423;53.176;6.002;2023-03-05T14:36:49;7.00;99.90
54518;DHT22;40423;53.176;6.002;2023-03-05T14:42:31;6.90;99.90
54518;DHT22;40423;53.176;6.002;2023-03-05T14:47:34;7.00;99.90
54518;DHT22;40423;53.176;6.002;2023-03-05T14:49:59;7.00;99.90
54518;DHT22;40423;53.176;6.002;2023-03-05T14:52:25;7.00;99.90
54518;DHT22;40423;53.176;6.002;2023-03-05T14:54:53;7.10;99.90
54518;DHT22;40423;53.176;6.002;2023-03-05T14:57:22;7.10;99.90
54518;DHT22;40423;53.176;6.002;2023-03-05T14:59:53;7.00;99.90
54518;DHT22;40423;53.176;6.002;2023-03-05T15:02:25;6.90;99.90
54518;DHT22;40423;53.176;6.002;2023-03-05T15:04:54;6.90;99.90
54518;DHT22;40423;53.176;6.002;2023-03-05T15:07:29;7.00;99.90
54518;DHT22;40423;53.176;6.002;2023-03-05T15:09:55;7.00;99.90
54518;DHT22;40423;53.176;6.002;2023-03-05T15:12:22;7.00;99.90
54518;DHT22;40423;53.176;6.002;2023-03-05T15:14:53;6.80;99.90
54518;DHT22;40423;53.176;6.002;2023-03-05T15:17:35;6.80;99.90
54518;DHT22;40423;53.176;6.002;2023-03-05T15:20:04;6.80;99.90
54518;DHT22;40423;53.176;6.002;2023-03-05T15:22:33;6.80;99.90
54518;DHT22;40423;53.176;6.002;2023-03-05T15:24:58;6.60;99.90
54518;DHT22;40423;53.176;6.002;2023-03-05T15:27:24;6.80;99.90
54518;DHT22;40423;53.176;6.002;2023-03-05T15:29:50;6.80;99.90
54518;DHT22;40423;53.176;6.002;2023-03-05T15:32:16;6.80;99.90
54518;DHT22;40423;53.176;6.002;2023-03-05T15:34:42;6.90;99.90
54518;DHT22;40423;53.176;6.002;2023-03-05T15:37:07;6.90;99.90
54518;DHT22;40423;53.176;6.002;2023-03-05T15:39:33;6.90;99.90
54518;DHT22;40423;53.176;6.002;2023-03-05T15:41:59;6.90;99.90
54518;DHT22;40423;53.176;6.002;2023-03-05T15:44:28;6.70;99.90
54518;DHT22;40423;53.176;6.002;2023-03-05T15:46:53;6.60;99.90
54518;DHT22;40423;53.176;6.002;2023-03-05T15:49:23;6.60;99.90
54518;DHT22;40423;53.176;6.002;2023-03-05T15:51:50;6.50;99.90
54518;DHT22;40423;53.176;6.002;2023-03-05T15:54:17;6.50;99.90
54518;DHT22;40423;53.176;6.002;2023-03-05T15:56:45;6.50;99.90
54518;DHT22;40423;53.176;6.002;2023-03-05T15:59:12;6.60;99.90
54518;DHT22;40423;53.176;6.002;2023-03-05T16:01:39;6.60;99.90
54518;DHT22;40423;53.176;6.002;2023-03-05T16:04:05;6.60;99.90
54518;DHT22;40423;53.176;6.002;2023-03-05T16:06:32;6.60;99.90
54518;DHT22;40423;53.176;6.002;2023-03-05T16:09:01;6.60;99.90
54518;DHT22;40423;53.176;6.002;2023-03-05T16:11:29;6.60;99.90
54518;DHT22;40423;53.176;6.002;2023-03-05T16:14:01;6.40;99.90
54518;DHT22;40423;53.176;6.002;2023-03-05T16:16:27;6.30;99.90
54518;DHT22;40423;53.176;6.002;2023-03-05T16:18:54;6.20;99.90
54518;DHT22;40423;53.176;6.002;2023-03-05T16:21:20;6.10;99.90
54518;DHT22;40423;53.176;6.002;2023-03-05T16:23:46;6.00;99.90
54518;DHT22;40423;53.176;6.002;2023-03-05T16:26:16;6.10;99.90
54518;DHT22;40423;53.176;6.002;2023-03-05T16:28:46;6.20;99.90
54518;DHT22;40423;53.176;6.002;2023-03-05T16:31:12;6.20;99.90
54518;DHT22;40423;53.176;6.002;2023-03-05T16:33:37;6.20;99.90
54518;DHT22;40423;53.176;6.002;2023-03-05T16:38:38;6.20;99.90
54518;DHT22;40423;53.176;6.002;2023-03-05T16:41:03;6.20;99.90
54518;DHT22;40423;53.176;6.002;2023-03-05T16:43:29;6.20;99.90
54518;DHT22;40423;53.176;6.002;2023-03-05T16:45:55;6.10;99.90
54518;DHT22;40423;53.176;6.002;2023-03-05T16:48:21;6.10;99.90
54518;DHT22;40423;53.176;6.002;2023-03-05T16:50:47;6.10;99.90
54518;DHT22;40423;53.176;6.002;2023-03-05T16:53:13;5.90;99.90
54518;DHT22;40423;53.176;6.002;2023-03-05T16:55:38;5.80;99.90
54518;DHT22;40423;53.176;6.002;2023-03-05T16:58:04;5.70;99.90
54518;DHT22;40423;53.176;6.002;2023-03-05T17:00:30;5.60;99.90
54518;DHT22;40423;53.176;6.002;2023-03-05T17:02:56;5.40;99.90
54518;DHT22;40423;53.176;6.002;2023-03-05T17:05:22;5.40;99.90
54518;DHT22;40423;53.176;6.002;2023-03-05T17:07:52;5.40;99.90
54518;DHT22;40423;53.176;6.002;2023-03-05T17:10:18;5.30;99.90
54518;DHT22;40423;53.176;6.002;2023-03-05T17:12:47;5.30;99.90
54518;DHT22;40423;53.176;6.002;2023-03-05T17:15:17;5.30;99.90
54518;DHT22;40423;53.176;6.002;2023-03-05T17:17:42;5.30;99.90